KLFK/LFK METAR and TAF weather

Enter ICAO airport designator
Station Type Date Time Source
KLFK METAR 2020/12/01 21:53 UTC NOAA

KLFK 012153Z AUTO 16011KT 10SM CLR 14/M03 A3012 RMK AO2 SLP199 T01441028


Station Type Date Time Source
KLFK Decoded METAR 2020/12/01 21:53 UTC NOAA

LUFKIN ANGELINA COUNTY AIRPORT , TX, United States (KLFK) 31-14N 94-45W 88M
Dec 01, 2020 - 04:53 PM EST / 2020.12.01 2153 UTC
Wind: from the SSE (160 degrees) at 13 MPH (11 KT):0
Visibility: 10 mile(s):0
Sky conditions: clear
Temperature: 57.9 F (14.4 C)
Dew Point: 27.0 F (-2.8 C)
Relative Humidity: 30%
Pressure (altimeter): 30.12 in. Hg (1019 hPa)
ob: KLFK 012153Z AUTO 16011KT 10SM CLR 14/M03 A3012 RMK AO2 SLP199 T01441028
cycle: 22

Station Type Date Time Source
KLFK TAF 2020/12/01 18:57 UTC NOAA

TAF KLFK 011742Z 0118/0218 15008KT P6SM SKC
FM020600 13007KT P6SM BKN100
FM020900 12007KT P6SM VCSH BKN040
FM021200 12008KT 6SM -SHRA BR OVC025
FM021400 12008KT 5SM SHRA BR OVC015
FM021600 12007KT 4SM SHRA VCTS OVC009CB

Example: see airport list